sensor_id;sensor_type;location;lat;lon;timestamp;pressure;altitude;pressure_sealevel;temperature
65569;BMP180;52211;50.154;8.682;2023-10-31T08:36:05;98748.00;;;12.10
65569;BMP180;52211;50.154;8.682;2023-10-31T08:38:37;98743.00;;;13.00
65569;BMP180;52211;50.154;8.682;2023-10-31T08:41:04;98752.00;;;13.70
65569;BMP180;52211;50.154;8.682;2023-10-31T08:43:33;98744.00;;;14.20
65569;BMP180;52211;50.154;8.682;2023-10-31T08:46:07;98750.00;;;14.70
65569;BMP180;52211;50.154;8.682;2023-10-31T08:48:36;98753.00;;;15.00
65569;BMP180;52211;50.154;8.682;2023-10-31T08:51:06;98769.00;;;15.20
65569;BMP180;52211;50.154;8.682;2023-10-31T08:53:35;98762.00;;;15.40
65569;BMP180;52211;50.154;8.682;2023-10-31T08:56:03;98773.00;;;15.60
65569;BMP180;52211;50.154;8.682;2023-10-31T08:58:33;98757.00;;;15.70
65569;BMP180;52211;50.154;8.682;2023-10-31T09:01:00;98765.00;;;15.80
65569;BMP180;52211;50.154;8.682;2023-10-31T09:03:27;98768.00;;;15.90
65569;BMP180;52211;50.154;8.682;2023-10-31T09:05:58;98782.00;;;16.00
65569;BMP180;52211;50.154;8.682;2023-10-31T09:08:25;98780.00;;;16.10
65569;BMP180;52211;50.154;8.682;2023-10-31T09:10:56;98782.00;;;16.10
65569;BMP180;52211;50.154;8.682;2023-10-31T09:13:30;98786.00;;;16.20
65569;BMP180;52211;50.154;8.682;2023-10-31T09:16:03;98782.00;;;16.30
65569;BMP180;52211;50.154;8.682;2023-10-31T09:18:30;98785.00;;;16.30
65569;BMP180;52211;50.154;8.682;2023-10-31T09:20:59;98793.00;;;16.40
65569;BMP180;52211;50.154;8.682;2023-10-31T09:23:26;98798.00;;;16.50
65569;BMP180;52211;50.154;8.682;2023-10-31T09:25:53;98803.00;;;16.50
65569;BMP180;52211;50.154;8.682;2023-10-31T09:28:24;98809.00;;;16.60
65569;BMP180;52211;50.154;8.682;2023-10-31T09:30:51;98814.00;;;16.70
65569;BMP180;52211;50.154;8.682;2023-10-31T09:33:21;98815.00;;;16.70
65569;BMP180;52211;50.154;8.682;2023-10-31T09:35:48;98822.00;;;16.80
65569;BMP180;52211;50.154;8.682;2023-10-31T09:38:19;98829.00;;;16.80
65569;BMP180;52211;50.154;8.682;2023-10-31T09:40:47;98824.00;;;16.90
65569;BMP180;52211;50.154;8.682;2023-10-31T09:43:13;98827.00;;;16.90
65569;BMP180;52211;50.154;8.682;2023-10-31T09:45:42;98829.00;;;16.90
65569;BMP180;52211;50.154;8.682;2023-10-31T09:48:12;98827.00;;;17.00
65569;BMP180;52211;50.154;8.682;2023-10-31T09:50:41;98836.00;;;17.00
65569;BMP180;52211;50.154;8.682;2023-10-31T09:53:16;98826.00;;;17.10
65569;BMP180;52211;50.154;8.682;2023-10-31T09:55:44;98827.00;;;17.10
65569;BMP180;52211;50.154;8.682;2023-10-31T09:58:11;98826.00;;;17.20
65569;BMP180;52211;50.154;8.682;2023-10-31T10:00:41;98825.00;;;17.20
65569;BMP180;52211;50.154;8.682;2023-10-31T10:03:08;98824.00;;;17.30
65569;BMP180;52211;50.154;8.682;2023-10-31T10:05:40;98821.00;;;17.40
65569;BMP180;52211;50.154;8.682;2023-10-31T10:08:07;98832.00;;;17.40
65569;BMP180;52211;50.154;8.682;2023-10-31T10:10:39;98833.00;;;17.50
65569;BMP180;52211;50.154;8.682;2023-10-31T10:13:09;98834.00;;;17.50
65569;BMP180;52211;50.154;8.682;2023-10-31T10:15:51;98833.00;;;17.60
65569;BMP180;52211;50.154;8.682;2023-10-31T10:18:36;98841.00;;;17.60
65569;BMP180;52211;50.154;8.682;2023-10-31T10:21:08;98863.00;;;17.60
65569;BMP180;52211;50.154;8.682;2023-10-31T10:23:37;98842.00;;;17.70
65569;BMP180;52211;50.154;8.682;2023-10-31T10:26:09;98853.00;;;17.70
65569;BMP180;52211;50.154;8.682;2023-10-31T10:28:38;98842.00;;;17.80
65569;BMP180;52211;50.154;8.682;2023-10-31T10:31:14;98840.00;;;17.80
65569;BMP180;52211;50.154;8.682;2023-10-31T10:33:45;98846.00;;;17.80
65569;BMP180;52211;50.154;8.682;2023-10-31T10:36:16;98841.00;;;17.90
65569;BMP180;52211;50.154;8.682;2023-10-31T10:38:49;98841.00;;;17.90
65569;BMP180;52211;50.154;8.682;2023-10-31T10:41:21;98837.00;;;18.00
65569;BMP180;52211;50.154;8.682;2023-10-31T10:43:57;98841.00;;;18.00
65569;BMP180;52211;50.154;8.682;2023-10-31T10:46:36;98841.00;;;18.10
65569;BMP180;52211;50.154;8.682;2023-10-31T10:49:08;98836.00;;;18.10
65569;BMP180;52211;50.154;8.682;2023-10-31T10:51:52;98838.00;;;18.20
65569;BMP180;52211;50.154;8.682;2023-10-31T11:00:03;98832.00;;;18.30
65569;BMP180;52211;50.154;8.682;2023-10-31T11:02:32;98826.00;;;18.40
65569;BMP180;52211;50.154;8.682;2023-10-31T11:05:00;98822.00;;;18.40
65569;BMP180;52211;50.154;8.682;2023-10-31T11:07:33;98835.00;;;18.50
65569;BMP180;52211;50.154;8.682;2023-10-31T11:10:05;98826.00;;;18.50
65569;BMP180;52211;50.154;8.682;2023-10-31T11:12:36;98828.00;;;18.60
65569;BMP180;52211;50.154;8.682;2023-10-31T11:15:05;98824.00;;;18.60
65569;BMP180;52211;50.154;8.682;2023-10-31T11:17:40;98823.00;;;18.70
65569;BMP180;52211;50.154;8.682;2023-10-31T11:20:13;98829.00;;;18.80
65569;BMP180;52211;50.154;8.682;2023-10-31T11:22:46;98826.00;;;18.80
65569;BMP180;52211;50.154;8.682;2023-10-31T11:25:20;98830.00;;;18.90
65569;BMP180;52211;50.154;8.682;2023-10-31T11:28:14;98831.00;;;19.00
65569;BMP180;52211;50.154;8.682;2023-10-31T11:30:45;98830.00;;;19.00
65569;BMP180;52211;50.154;8.682;2023-10-31T11:33:18;98825.00;;;19.10
65569;BMP180;52211;50.154;8.682;2023-10-31T11:36:03;98850.00;;;19.20
65569;BMP180;52211;50.154;8.682;2023-10-31T11:38:36;98833.00;;;19.20
65569;BMP180;52211;50.154;8.682;2023-10-31T11:41:04;98836.00;;;19.30
65569;BMP180;52211;50.154;8.682;2023-10-31T11:46:24;98839.00;;;19.30
65569;BMP180;52211;50.154;8.682;2023-10-31T11:48:58;98843.00;;;19.30
65569;BMP180;52211;50.154;8.682;2023-10-31T11:51:28;98845.00;;;19.40
65569;BMP180;52211;50.154;8.682;2023-10-31T11:54:01;98836.00;;;19.50
65569;BMP180;52211;50.154;8.682;2023-10-31T11:56:31;98847.00;;;19.60
65569;BMP180;52211;50.154;8.682;2023-10-31T11:59:05;98838.00;;;19.70
65569;BMP180;52211;50.154;8.682;2023-10-31T12:01:47;98850.00;;;19.90
65569;BMP180;52211;50.154;8.682;2023-10-31T12:04:26;98865.00;;;20.20
65569;BMP180;52211;50.154;8.682;2023-10-31T12:06:59;98854.00;;;20.40
65569;BMP180;52211;50.154;8.682;2023-10-31T12:09:27;98855.00;;;20.70
65569;BMP180;52211;50.154;8.682;2023-10-31T12:11:59;98872.00;;;21.00
65569;BMP180;52211;50.154;8.682;2023-10-31T12:14:26;98869.00;;;21.30
65569;BMP180;52211;50.154;8.682;2023-10-31T12:16:53;98875.00;;;21.50
65569;BMP180;52211;50.154;8.682;2023-10-31T12:19:22;98884.00;;;21.70
65569;BMP180;52211;50.154;8.682;2023-10-31T12:21:53;98891.00;;;21.90
65569;BMP180;52211;50.154;8.682;2023-10-31T12:24:25;98893.00;;;22.10
65569;BMP180;52211;50.154;8.682;2023-10-31T12:26:54;98892.00;;;22.10
65569;BMP180;52211;50.154;8.682;2023-10-31T12:29:23;98903.00;;;22.10
65569;BMP180;52211;50.154;8.682;2023-10-31T12:31:53;98906.00;;;22.00
65569;BMP180;52211;50.154;8.682;2023-10-31T12:34:25;98908.00;;;21.80
65569;BMP180;52211;50.154;8.682;2023-10-31T12:36:55;98905.00;;;21.60
65569;BMP180;52211;50.154;8.682;2023-10-31T12:39:28;98912.00;;;21.40
65569;BMP180;52211;50.154;8.682;2023-10-31T12:41:58;98900.00;;;21.20
65569;BMP180;52211;50.154;8.682;2023-10-31T12:44:30;98907.00;;;21.00
65569;BMP180;52211;50.154;8.682;2023-10-31T12:46:57;98903.00;;;20.80
65569;BMP180;52211;50.154;8.682;2023-10-31T12:49:27;98909.00;;;20.70
65569;BMP180;52211;50.154;8.682;2023-10-31T12:51:57;98905.00;;;20.60
65569;BMP180;52211;50.154;8.682;2023-10-31T12:54:36;98909.00;;;20.50
65569;BMP180;52211;50.154;8.682;2023-10-31T12:57:07;98905.00;;;20.40
65569;BMP180;52211;50.154;8.682;2023-10-31T12:59:40;98898.00;;;20.40
65569;BMP180;52211;50.154;8.682;2023-10-31T13:02:16;98908.00;;;20.60
65569;BMP180;52211;50.154;8.682;2023-10-31T13:04:43;98906.00;;;20.80
65569;BMP180;52211;50.154;8.682;2023-10-31T13:07:10;98914.00;;;20.90
65569;BMP180;52211;50.154;8.682;2023-10-31T13:09:38;98914.00;;;20.90
65569;BMP180;52211;50.154;8.682;2023-10-31T13:12:09;98918.00;;;21.10
65569;BMP180;52211;50.154;8.682;2023-10-31T13:14:38;98912.00;;;21.30
65569;BMP180;52211;50.154;8.682;2023-10-31T13:17:10;98919.00;;;21.40
65569;BMP180;52211;50.154;8.682;2023-10-31T13:19:37;98928.00;;;21.40
65569;BMP180;52211;50.154;8.682;2023-10-31T13:22:04;98931.00;;;21.60
65569;BMP180;52211;50.154;8.682;2023-10-31T13:24:31;98924.00;;;21.70
65569;BMP180;52211;50.154;8.682;2023-10-31T13:27:03;98925.00;;;21.70
65569;BMP180;52211;50.154;8.682;2023-10-31T13:29:30;98922.00;;;21.60
65569;BMP180;52211;50.154;8.682;2023-10-31T13:31:57;98924.00;;;21.50
65569;BMP180;52211;50.154;8.682;2023-10-31T13:34:25;98925.00;;;21.30
65569;BMP180;52211;50.154;8.682;2023-10-31T13:36:52;98920.00;;;21.20
65569;BMP180;52211;50.154;8.682;2023-10-31T13:39:25;98929.00;;;21.10
65569;BMP180;52211;50.154;8.682;2023-10-31T13:41:57;98927.00;;;21.00
65569;BMP180;52211;50.154;8.682;2023-10-31T13:44:26;98927.00;;;20.90
65569;BMP180;52211;50.154;8.682;2023-10-31T13:46:57;98930.00;;;20.80
65569;BMP180;52211;50.154;8.682;2023-10-31T13:49:27;98927.00;;;20.90
65569;BMP180;52211;50.154;8.682;2023-10-31T13:51:59;98928.00;;;20.80
65569;BMP180;52211;50.154;8.682;2023-10-31T13:54:28;98929.00;;;20.70
65569;BMP180;52211;50.154;8.682;2023-10-31T13:57:00;98930.00;;;20.70
65569;BMP180;52211;50.154;8.682;2023-10-31T13:59:27;98924.00;;;20.60
65569;BMP180;52211;50.154;8.682;2023-10-31T14:01:59;98927.00;;;20.60
65569;BMP180;52211;50.154;8.682;2023-10-31T14:04:30;98928.00;;;20.50
65569;BMP180;52211;50.154;8.682;2023-10-31T14:06:58;98932.00;;;20.40
65569;BMP180;52211;50.154;8.682;2023-10-31T14:09:27;98930.00;;;20.40
65569;BMP180;52211;50.154;8.682;2023-10-31T14:11:54;98942.00;;;20.40
65569;BMP180;52211;50.154;8.682;2023-10-31T14:14:21;98940.00;;;20.40
65569;BMP180;52211;50.154;8.682;2023-10-31T14:16:48;98943.00;;;20.40
65569;BMP180;52211;50.154;8.682;2023-10-31T14:19:18;98942.00;;;20.40
65569;BMP180;52211;50.154;8.682;2023-10-31T14:21:47;98951.00;;;20.40
65569;BMP180;52211;50.154;8.682;2023-10-31T14:24:17;98954.00;;;20.40
65569;BMP180;52211;50.154;8.682;2023-10-31T14:26:46;98945.00;;;20.40
65569;BMP180;52211;50.154;8.682;2023-10-31T14:29:15;98945.00;;;20.40
65569;BMP180;52211;50.154;8.682;2023-10-31T14:31:45;98952.00;;;20.40
65569;BMP180;52211;50.154;8.682;2023-10-31T14:34:12;98947.00;;;20.40
65569;BMP180;52211;50.154;8.682;2023-10-31T14:36:43;98958.00;;;20.40
65569;BMP180;52211;50.154;8.682;2023-10-31T14:39:13;98959.00;;;20.30
65569;BMP180;52211;50.154;8.682;2023-10-31T14:41:45;98954.00;;;20.30
65569;BMP180;52211;50.154;8.682;2023-10-31T14:44:12;98954.00;;;20.30
65569;BMP180;52211;50.154;8.682;2023-10-31T14:46:39;98962.00;;;20.30
65569;BMP180;52211;50.154;8.682;2023-10-31T14:49:06;98971.00;;;20.20
65569;BMP180;52211;50.154;8.682;2023-10-31T14:51:38;98968.00;;;20.20
65569;BMP180;52211;50.154;8.682;2023-10-31T14:54:10;98970.00;;;20.20
65569;BMP180;52211;50.154;8.682;2023-10-31T14:56:42;98973.00;;;20.20
65569;BMP180;52211;50.154;8.682;2023-10-31T14:59:17;98975.00;;;20.10
65569;BMP180;52211;50.154;8.682;2023-10-31T15:01:44;98977.00;;;20.10
65569;BMP180;52211;50.154;8.682;2023-10-31T15:04:15;98982.00;;;20.00
65569;BMP180;52211;50.154;8.682;2023-10-31T15:06:45;98985.00;;;20.00
65569;BMP180;52211;50.154;8.682;2023-10-31T15:09:17;98989.00;;;20.00
65569;BMP180;52211;50.154;8.682;2023-10-31T15:11:49;98986.00;;;19.90
65569;BMP180;52211;50.154;8.682;2023-10-31T15:14:16;98982.00;;;19.80
65569;BMP180;52211;50.154;8.682;2023-10-31T15:16:46;98991.00;;;19.70
65569;BMP180;52211;50.154;8.682;2023-10-31T15:19:13;98992.00;;;19.70
65569;BMP180;52211;50.154;8.682;2023-10-31T15:21:42;98995.00;;;19.60
65569;BMP180;52211;50.154;8.682;2023-10-31T15:24:13;98996.00;;;19.50
65569;BMP180;52211;50.154;8.682;2023-10-31T15:26:43;98996.00;;;19.40
65569;BMP180;52211;50.154;8.682;2023-10-31T15:29:12;98994.00;;;19.40
65569;BMP180;52211;50.154;8.682;2023-10-31T15:31:48;98994.00;;;19.30
65569;BMP180;52211;50.154;8.682;2023-10-31T15:34:25;98994.00;;;19.20
65569;BMP180;52211;50.154;8.682;2023-10-31T15:36:54;99006.00;;;19.20
65569;BMP180;52211;50.154;8.682;2023-10-31T15:39:24;99005.00;;;19.20
65569;BMP180;52211;50.154;8.682;2023-10-31T15:41:51;99014.00;;;19.10
65569;BMP180;52211;50.154;8.682;2023-10-31T15:44:21;99012.00;;;19.10
65569;BMP180;52211;50.154;8.682;2023-10-31T15:46:50;99015.00;;;19.00
65569;BMP180;52211;50.154;8.682;2023-10-31T15:49:17;99021.00;;;19.00
65569;BMP180;52211;50.154;8.682;2023-10-31T15:51:47;99022.00;;;19.00
65569;BMP180;52211;50.154;8.682;2023-10-31T15:54:16;99034.00;;;19.00
65569;BMP180;52211;50.154;8.682;2023-10-31T15:56:43;99040.00;;;18.90
65569;BMP180;52211;50.154;8.682;2023-10-31T15:59:14;99039.00;;;18.90
65569;BMP180;52211;50.154;8.682;2023-10-31T16:01:42;99053.00;;;18.90
65569;BMP180;52211;50.154;8.682;2023-10-31T16:04:09;99050.00;;;18.90
65569;BMP180;52211;50.154;8.682;2023-10-31T16:06:36;99052.00;;;18.80
65569;BMP180;52211;50.154;8.682;2023-10-31T16:09:05;99061.00;;;18.80
65569;BMP180;52211;50.154;8.682;2023-10-31T16:11:34;99061.00;;;18.80
65569;BMP180;52211;50.154;8.682;2023-10-31T16:14:04;99071.00;;;18.80
65569;BMP180;52211;50.154;8.682;2023-10-31T16:16:33;99077.00;;;18.70
65569;BMP180;52211;50.154;8.682;2023-10-31T16:19:00;99079.00;;;18.70
65569;BMP180;52211;50.154;8.682;2023-10-31T16:21:32;99087.00;;;18.70
65569;BMP180;52211;50.154;8.682;2023-10-31T16:23:58;99082.00;;;18.70
65569;BMP180;52211;50.154;8.682;2023-10-31T16:26:28;99092.00;;;18.70
65569;BMP180;52211;50.154;8.682;2023-10-31T16:28:55;99088.00;;;18.70
65569;BMP180;52211;50.154;8.682;2023-10-31T16:31:24;99098.00;;;18.70
65569;BMP180;52211;50.154;8.682;2023-10-31T16:33:54;99099.00;;;18.70
65569;BMP180;52211;50.154;8.682;2023-10-31T16:36:25;99095.00;;;18.70
65569;BMP180;52211;50.154;8.682;2023-10-31T16:38:52;99089.00;;;18.70
65569;BMP180;52211;50.154;8.682;2023-10-31T16:41:21;99097.00;;;18.70
65569;BMP180;52211;50.154;8.682;2023-10-31T16:43:51;99096.00;;;18.70
65569;BMP180;52211;50.154;8.682;2023-10-31T16:46:22;99100.00;;;18.70
65569;BMP180;52211;50.154;8.682;2023-10-31T16:48:49;99107.00;;;18.60
65569;BMP180;52211;50.154;8.682;2023-10-31T16:51:18;99110.00;;;18.60
65569;BMP180;52211;50.154;8.682;2023-10-31T16:53:45;99108.00;;;18.60
65569;BMP180;52211;50.154;8.682;2023-10-31T16:56:12;99121.00;;;18.60
65569;BMP180;52211;50.154;8.682;2023-10-31T16:58:42;99123.00;;;18.60
65569;BMP180;52211;50.154;8.682;2023-10-31T17:01:15;99134.00;;;18.60
65569;BMP180;52211;50.154;8.682;2023-10-31T17:03:49;99130.00;;;18.60
65569;BMP180;52211;50.154;8.682;2023-10-31T17:06:21;99131.00;;;18.60
65569;BMP180;52211;50.154;8.682;2023-10-31T17:08:50;99135.00;;;18.60
65569;BMP180;52211;50.154;8.682;2023-10-31T17:11:20;99137.00;;;18.60
65569;BMP180;52211;50.154;8.682;2023-10-31T17:13:50;99137.00;;;18.60
65569;BMP180;52211;50.154;8.682;2023-10-31T17:16:21;99149.00;;;18.60
65569;BMP180;52211;50.154;8.682;2023-10-31T17:18:51;99142.00;;;18.60
65569;BMP180;52211;50.154;8.682;2023-10-31T17:21:22;99147.00;;;18.60
65569;BMP180;52211;50.154;8.682;2023-10-31T17:23:49;99150.00;;;18.60
65569;BMP180;52211;50.154;8.682;2023-10-31T17:26:17;99152.00;;;18.60
65569;BMP180;52211;50.154;8.682;2023-10-31T17:28:44;99154.00;;;18.60
65569;BMP180;52211;50.154;8.682;2023-10-31T17:31:15;99155.00;;;18.60
65569;BMP180;52211;50.154;8.682;2023-10-31T17:33:50;99155.00;;;18.60
65569;BMP180;52211;50.154;8.682;2023-10-31T17:36:20;99160.00;;;18.60
65569;BMP180;52211;50.154;8.682;2023-10-31T17:38:51;99160.00;;;18.50
65569;BMP180;52211;50.154;8.682;2023-10-31T17:41:23;99160.00;;;18.50
65569;BMP180;52211;50.154;8.682;2023-10-31T17:43:52;99163.00;;;18.50
65569;BMP180;52211;50.154;8.682;2023-10-31T17:46:19;99167.00;;;18.50
65569;BMP180;52211;50.154;8.682;2023-10-31T17:48:49;99173.00;;;18.50
65569;BMP180;52211;50.154;8.682;2023-10-31T17:51:16;99180.00;;;18.50
65569;BMP180;52211;50.154;8.682;2023-10-31T17:53:48;99178.00;;;18.50
65569;BMP180;52211;50.154;8.682;2023-10-31T17:56:15;99180.00;;;18.50
65569;BMP180;52211;50.154;8.682;2023-10-31T17:58:44;99179.00;;;18.50
65569;BMP180;52211;50.154;8.682;2023-10-31T18:01:13;99182.00;;;18.50
65569;BMP180;52211;50.154;8.682;2023-10-31T18:03:40;99186.00;;;18.40
65569;BMP180;52211;50.154;8.682;2023-10-31T18:06:10;99189.00;;;18.50
65569;BMP180;52211;50.154;8.682;2023-10-31T18:08:37;99187.00;;;18.50
65569;BMP180;52211;50.154;8.682;2023-10-31T18:11:09;99203.00;;;18.50
65569;BMP180;52211;50.154;8.682;2023-10-31T18:13:38;99198.00;;;18.50
65569;BMP180;52211;50.154;8.682;2023-10-31T18:16:08;99194.00;;;18.50
65569;BMP180;52211;50.154;8.682;2023-10-31T18:18:40;99199.00;;;18.50
65569;BMP180;52211;50.154;8.682;2023-10-31T18:21:11;99203.00;;;18.50
65569;BMP180;52211;50.154;8.682;2023-10-31T18:23:42;99219.00;;;18.50
65569;BMP180;52211;50.154;8.682;2023-10-31T18:26:11;99213.00;;;18.50
65569;BMP180;52211;50.154;8.682;2023-10-31T18:28:40;99221.00;;;18.50
65569;BMP180;52211;50.154;8.682;2023-10-31T18:31:07;99220.00;;;18.40
65569;BMP180;52211;50.154;8.682;2023-10-31T18:33:34;99220.00;;;18.40
65569;BMP180;52211;50.154;8.682;2023-10-31T18:36:03;99224.00;;;18.40
65569;BMP180;52211;50.154;8.682;2023-10-31T18:38:31;99229.00;;;18.40
65569;BMP180;52211;50.154;8.682;2023-10-31T18:40:58;99230.00;;;18.40
65569;BMP180;52211;50.154;8.682;2023-10-31T18:43:25;99241.00;;;18.30
65569;BMP180;52211;50.154;8.682;2023-10-31T18:45:54;99243.00;;;18.30
65569;BMP180;52211;50.154;8.682;2023-10-31T18:48:21;99248.00;;;18.20
65569;BMP180;52211;50.154;8.682;2023-10-31T18:50:48;99239.00;;;18.20
65569;BMP180;52211;50.154;8.682;2023-10-31T18:53:17;99235.00;;;18.10
65569;BMP180;52211;50.154;8.682;2023-10-31T18:55:44;99249.00;;;18.10
65569;BMP180;52211;50.154;8.682;2023-10-31T18:58:13;99251.00;;;18.10
65569;BMP180;52211;50.154;8.682;2023-10-31T19:00:42;99249.00;;;18.10
65569;BMP180;52211;50.154;8.682;2023-10-31T19:03:14;99245.00;;;18.10
65569;BMP180;52211;50.154;8.682;2023-10-31T19:05:46;99234.00;;;18.10
65569;BMP180;52211;50.154;8.682;2023-10-31T19:08:13;99238.00;;;18.10
65569;BMP180;52211;50.154;8.682;2023-10-31T19:10:40;99237.00;;;18.10
65569;BMP180;52211;50.154;8.682;2023-10-31T19:13:21;99237.00;;;18.00
65569;BMP180;52211;50.154;8.682;2023-10-31T19:15:48;99236.00;;;18.00
65569;BMP180;52211;50.154;8.682;2023-10-31T19:18:17;99246.00;;;18.00
65569;BMP180;52211;50.154;8.682;2023-10-31T19:20:44;99242.00;;;18.00
65569;BMP180;52211;50.154;8.682;2023-10-31T19:23:16;99244.00;;;18.00
65569;BMP180;52211;50.154;8.682;2023-10-31T19:25:46;99239.00;;;18.00
65569;BMP180;52211;50.154;8.682;2023-10-31T19:28:15;99244.00;;;17.90
65569;BMP180;52211;50.154;8.682;2023-10-31T19:30:45;99250.00;;;17.90
65569;BMP180;52211;50.154;8.682;2023-10-31T19:33:17;99256.00;;;17.90
65569;BMP180;52211;50.154;8.682;2023-10-31T19:35:43;99264.00;;;17.90
65569;BMP180;52211;50.154;8.682;2023-10-31T19:38:13;99259.00;;;17.90
65569;BMP180;52211;50.154;8.682;2023-10-31T19:40:40;99263.00;;;17.80
65569;BMP180;52211;50.154;8.682;2023-10-31T19:43:07;99273.00;;;17.80
65569;BMP180;52211;50.154;8.682;2023-10-31T19:45:37;99279.00;;;17.80
65569;BMP180;52211;50.154;8.682;2023-10-31T19:48:07;99276.00;;;17.80
65569;BMP180;52211;50.154;8.682;2023-10-31T19:50:37;99280.00;;;17.80
65569;BMP180;52211;50.154;8.682;2023-10-31T19:53:09;99270.00;;;17.80
65569;BMP180;52211;50.154;8.682;2023-10-31T19:55:36;99273.00;;;17.80
65569;BMP180;52211;50.154;8.682;2023-10-31T19:58:03;99269.00;;;17.80
65569;BMP180;52211;50.154;8.682;2023-10-31T20:00:35;99257.00;;;17.80
65569;BMP180;52211;50.154;8.682;2023-10-31T20:03:05;99272.00;;;17.80
65569;BMP180;52211;50.154;8.682;2023-10-31T20:05:32;99277.00;;;17.80
65569;BMP180;52211;50.154;8.682;2023-10-31T20:07:59;99280.00;;;17.80
65569;BMP180;52211;50.154;8.682;2023-10-31T20:10:26;99283.00;;;17.80
65569;BMP180;52211;50.154;8.682;2023-10-31T20:12:53;99284.00;;;17.80
65569;BMP180;52211;50.154;8.682;2023-10-31T20:15:19;99287.00;;;17.80
65569;BMP180;52211;50.154;8.682;2023-10-31T20:17:51;99297.00;;;17.80
65569;BMP180;52211;50.154;8.682;2023-10-31T20:20:20;99294.00;;;17.80
65569;BMP180;52211;50.154;8.682;2023-10-31T20:22:49;99305.00;;;17.80
65569;BMP180;52211;50.154;8.682;2023-10-31T20:25:16;99296.00;;;17.80
65569;BMP180;52211;50.154;8.682;2023-10-31T20:27:43;99311.00;;;17.80
65569;BMP180;52211;50.154;8.682;2023-10-31T20:30:14;99309.00;;;17.80
65569;BMP180;52211;50.154;8.682;2023-10-31T20:32:41;99309.00;;;17.80
65569;BMP180;52211;50.154;8.682;2023-10-31T20:35:08;99300.00;;;17.80
65569;BMP180;52211;50.154;8.682;2023-10-31T20:37:40;99297.00;;;17.80
65569;BMP180;52211;50.154;8.682;2023-10-31T20:40:08;99296.00;;;17.80
65569;BMP180;52211;50.154;8.682;2023-10-31T20:42:37;99304.00;;;17.80
65569;BMP180;52211;50.154;8.682;2023-10-31T20:45:05;99299.00;;;17.80
65569;BMP180;52211;50.154;8.682;2023-10-31T20:47:38;99291.00;;;17.80
65569;BMP180;52211;50.154;8.682;2023-10-31T20:50:06;99298.00;;;17.70
65569;BMP180;52211;50.154;8.682;2023-10-31T20:52:35;99297.00;;;17.70
65569;BMP180;52211;50.154;8.682;2023-10-31T20:55:03;99305.00;;;17.70
65569;BMP180;52211;50.154;8.682;2023-10-31T20:57:35;99308.00;;;17.70
65569;BMP180;52211;50.154;8.682;2023-10-31T21:00:07;99310.00;;;17.70
65569;BMP180;52211;50.154;8.682;2023-10-31T21:02:39;99311.00;;;17.70
65569;BMP180;52211;50.154;8.682;2023-10-31T21:05:06;99310.00;;;17.60
65569;BMP180;52211;50.154;8.682;2023-10-31T21:07:38;99305.00;;;17.60
65569;BMP180;52211;50.154;8.682;2023-10-31T21:10:08;99304.00;;;17.60
65569;BMP180;52211;50.154;8.682;2023-10-31T21:12:37;99306.00;;;17.60
65569;BMP180;52211;50.154;8.682;2023-10-31T21:15:10;99306.00;;;17.50
65569;BMP180;52211;50.154;8.682;2023-10-31T21:17:40;99294.00;;;17.50
65569;BMP180;52211;50.154;8.682;2023-10-31T21:20:10;99296.00;;;17.50
65569;BMP180;52211;50.154;8.682;2023-10-31T21:22:42;99290.00;;;17.50
65569;BMP180;52211;50.154;8.682;2023-10-31T21:25:13;99297.00;;;17.50
65569;BMP180;52211;50.154;8.682;2023-10-31T21:27:43;99290.00;;;17.40
65569;BMP180;52211;50.154;8.682;2023-10-31T21:30:18;99299.00;;;17.50
65569;BMP180;52211;50.154;8.682;2023-10-31T21:32:49;99292.00;;;17.40
65569;BMP180;52211;50.154;8.682;2023-10-31T21:35:18;99293.00;;;17.40
65569;BMP180;52211;50.154;8.682;2023-10-31T21:37:50;99294.00;;;17.40
65569;BMP180;52211;50.154;8.682;2023-10-31T21:40:17;99289.00;;;17.40
65569;BMP180;52211;50.154;8.682;2023-10-31T21:42:44;99292.00;;;17.40
65569;BMP180;52211;50.154;8.682;2023-10-31T21:45:11;99289.00;;;17.40
65569;BMP180;52211;50.154;8.682;2023-10-31T21:47:42;99285.00;;;17.40
65569;BMP180;52211;50.154;8.682;2023-10-31T21:50:12;99280.00;;;17.40
65569;BMP180;52211;50.154;8.682;2023-10-31T21:52:38;99276.00;;;17.50
65569;BMP180;52211;50.154;8.682;2023-10-31T21:55:06;99280.00;;;17.40
65569;BMP180;52211;50.154;8.682;2023-10-31T21:57:37;99286.00;;;17.40
65569;BMP180;52211;50.154;8.682;2023-10-31T22:00:05;99282.00;;;17.40
65569;BMP180;52211;50.154;8.682;2023-10-31T22:02:39;99290.00;;;17.40
65569;BMP180;52211;50.154;8.682;2023-10-31T22:05:06;99286.00;;;17.40
65569;BMP180;52211;50.154;8.682;2023-10-31T22:07:36;99290.00;;;17.40
65569;BMP180;52211;50.154;8.682;2023-10-31T22:10:03;99286.00;;;17.40
65569;BMP180;52211;50.154;8.682;2023-10-31T22:12:32;99286.00;;;17.40
65569;BMP180;52211;50.154;8.682;2023-10-31T22:15:02;99286.00;;;17.40
65569;BMP180;52211;50.154;8.682;2023-10-31T22:17:30;99289.00;;;17.40
65569;BMP180;52211;50.154;8.682;2023-10-31T22:19:59;99290.00;;;17.40
65569;BMP180;52211;50.154;8.682;2023-10-31T22:22:33;99293.00;;;17.40
65569;BMP180;52211;50.154;8.682;2023-10-31T22:25:05;99292.00;;;17.40
65569;BMP180;52211;50.154;8.682;2023-10-31T22:27:34;99289.00;;;17.40
65569;BMP180;52211;50.154;8.682;2023-10-31T22:30:05;99289.00;;;17.40
65569;BMP180;52211;50.154;8.682;2023-10-31T22:32:39;99293.00;;;17.40
65569;BMP180;52211;50.154;8.682;2023-10-31T22:35:06;99296.00;;;17.40
65569;BMP180;52211;50.154;8.682;2023-10-31T22:37:36;99287.00;;;17.40
65569;BMP180;52211;50.154;8.682;2023-10-31T22:40:06;99289.00;;;17.40
65569;BMP180;52211;50.154;8.682;2023-10-31T22:42:36;99289.00;;;17.40
65569;BMP180;52211;50.154;8.682;2023-10-31T22:45:04;99289.00;;;17.40
65569;BMP180;52211;50.154;8.682;2023-10-31T22:47:31;99304.00;;;17.40
65569;BMP180;52211;50.154;8.682;2023-10-31T22:50:00;99296.00;;;17.40
65569;BMP180;52211;50.154;8.682;2023-10-31T22:52:27;99298.00;;;17.40
65569;BMP180;52211;50.154;8.682;2023-10-31T22:54:56;99295.00;;;17.40
65569;BMP180;52211;50.154;8.682;2023-10-31T22:57:25;99304.00;;;17.40
65569;BMP180;52211;50.154;8.682;2023-10-31T22:59:57;99296.00;;;17.40
65569;BMP180;52211;50.154;8.682;2023-10-31T23:02:28;99305.00;;;17.40
65569;BMP180;52211;50.154;8.682;2023-10-31T23:04:58;99294.00;;;17.40
65569;BMP180;52211;50.154;8.682;2023-10-31T23:07:30;99290.00;;;17.40